Mh2 Luar — CSHC2 — position and weather

sailwx.info

Track history (hours):
 
Tides and Currents Weather Stations Pressure Air Temp Water Temp Dewpoint Dewpoint Depression Visibility Wind Speed Wind Dir Waves Ship Positions

Mh2 Luar

Last reported at 2017-Nov-19 22:04 UTC. Time now 2017-Nov-23 11:03 UTC.
Position N 38°42' W 009°11'.

Type: Passenger vessel. MMSI: 263753590.

Date/timePositionNaut miles runAvg speedWind from/ knotsBaromVisibWave heightAir tempDewpointWater temp
2017-Nov-19 22:04N 38°42' W 009°11'2 0.2
2017-Nov-19 14:33N 38°41' W 009°13'3 3.0
2017-Nov-19 13:30N 38°42' W 009°09'3 1.1
2017-Nov-19 10:43N 38°42' W 009°13'2 0.6
2017-Nov-19 07:50N 38°42' W 009°11'0 0.0
2017-Nov-19 05:39N 38°42' W 009°11'0 0.0
2017-Nov-19 05:11N 38°42' W 009°11'0 0.0
2017-Nov-19 04:50N 38°42' W 009°11'0 0.0
2017-Nov-19 02:52N 38°42' W 009°11'0 0.0
2017-Nov-19 02:25N 38°42' W 009°11'0 0.0
2017-Nov-19 01:55N 38°42' W 009°11'2 0.2
2017-Nov-18 17:57N 38°42' W 009°09'2 0.3
2017-Nov-18 11:18N 38°42' W 009°11'0 0.1
2017-Nov-18 09:02N 38°42' W 009°11'0 0.0
2017-Nov-18 08:44N 38°42' W 009°11'0 0.0
2017-Nov-18 08:26N 38°42' W 009°11'0 0.0
2017-Nov-18 06:02N 38°42' W 009°11'0 0.0
2017-Nov-18 05:56N 38°42' W 009°11'0 0.0
2017-Nov-18 05:26N 38°42' W 009°11'0 0.0
2017-Nov-18 04:38N 38°42' W 009°11'0 0.0
2017-Nov-18 04:20N 38°42' W 009°11'0 0.0
2017-Nov-18 03:47N 38°42' W 009°11'0 0.0
2017-Nov-17 08:54N 38°42' W 009°11'0 0.0
2017-Nov-17 06:49N 38°42' W 009°11'0 0.0
2017-Nov-17 06:19N 38°42' W 009°11'0 0.0
2017-Nov-17 05:48N 38°42' W 009°11'0 0.0
2017-Nov-17 05:25N 38°42' W 009°11'0 0.0
2017-Nov-17 04:38N 38°42' W 009°11'0 0.0
2017-Nov-17 04:02N 38°42' W 009°11'0 0.0
2017-Nov-17 03:38N 38°42' W 009°11'0 0.0
2017-Nov-17 03:17N 38°42' W 009°11'0 0.0
2017-Nov-17 02:56N 38°42' W 009°11'0 0.0
2017-Nov-17 02:28N 38°42' W 009°11'0 0.0
2017-Nov-17 01:55N 38°42' W 009°11'0 0.0
2017-Nov-17 00:11N 38°42' W 009°11'0 0.0
2017-Nov-16 23:56N 38°42' W 009°11'0 0.0
2017-Nov-16 20:49N 38°42' W 009°11'0 0.0
2017-Nov-16 06:42N 38°42' W 009°11'0 0.0
2017-Nov-16 05:18N 38°42' W 009°11'0 0.0
2017-Nov-16 05:00N 38°42' W 009°11'0 0.0
2017-Nov-16 03:41N 38°42' W 009°11'0 0.0
2017-Nov-16 03:29N 38°42' W 009°11'0 0.0
2017-Nov-16 02:05N 38°42' W 009°11'0 0.0
2017-Nov-16 01:46N 38°42' W 009°11'0 0.0
2017-Nov-16 01:20N 38°42' W 009°11'0 0.0
2017-Nov-16 00:59N 38°42' W 009°11'0 0.0
2017-Nov-16 00:05N 38°42' W 009°11'0 0.0
2017-Nov-15 22:35N 38°42' W 009°11'0 0.0
2017-Nov-15 22:08N 38°42' W 009°11'0 0.0
2017-Nov-15 05:58N 38°42' W 009°11'0 0.0
2017-Nov-15 03:31N 38°42' W 009°11'0 0.0
2017-Nov-15 03:13N 38°42' W 009°11'0 0.0
2017-Nov-14 17:12N 38°42' W 009°11'2 0.4
2017-Nov-14 11:42N 38°42' W 009°09'3 3.1
2017-Nov-14 10:36N 38°42' W 009°13'0 2.9
2017-Nov-14 10:29N 38°41' W 009°12'1 0.0
2017-Nov-13 01:59N 38°42' W 009°11'1 0.1
2017-Nov-12 16:06N 38°42' W 009°09'0 1.4
2017-Nov-12 15:48N 38°42' W 009°09'1 3.3
2017-Nov-12 15:26N 38°42' W 009°10'1 1.6
2017-Nov-12 14:31N 38°42' W 009°12'1 6.6
2017-Nov-12 14:26N 38°42' W 009°11'1 1.4
2017-Nov-12 13:33N 38°42' W 009°10'0 5.3
2017-Nov-12 13:29N 38°42' W 009°10'0 0.1
2017-Nov-12 07:30N 38°42' W 009°11'0 0.0
2017-Nov-12 06:02N 38°42' W 009°11'0 0.0
2017-Nov-12 05:41N 38°42' W 009°11'0 0.0
2017-Nov-12 04:49N 38°42' W 009°11'0 0.0
2017-Nov-12 01:44N 38°42' W 009°11'1 0.1
2017-Nov-11 13:42N 38°42' W 009°11'1 0.1
2017-Nov-11 08:24N 38°42' W 009°11'0 0.0
2017-Nov-11 07:57N 38°42' W 009°11'0 0.0
2017-Nov-11 07:27N 38°42' W 009°11'0 0.0
2017-Nov-11 06:57N 38°42' W 009°11'0 0.0
2017-Nov-11 06:24N 38°42' W 009°11'0 0.0
2017-Nov-11 05:48N 38°42' W 009°11'0 0.0
2017-Nov-11 05:25N 38°42' W 009°11'0 0.0
2017-Nov-11 04:56N 38°42' W 009°11'0 0.0
2017-Nov-11 04:14N 38°42' W 009°11'0 0.0
2017-Nov-11 03:47N 38°42' W 009°11'0 0.0
2017-Nov-11 01:52N 38°42' W 009°11'0 0.0
2017-Nov-11 01:28N 38°42' W 009°11'0 0.0
2017-Nov-11 01:00N 38°42' W 009°11'0 0.0
2017-Nov-11 00:20N 38°42' W 009°11'0 0.0
2017-Nov-10 23:59N 38°42' W 009°11'0 0.0
2017-Nov-10 22:35N 38°42' W 009°11'0 0.0
2017-Nov-10 21:14N 38°42' W 009°11'2 0.2
2017-Nov-10 12:32N 38°41' W 009°13'1 7.5
2017-Nov-10 12:26N 38°42' W 009°12'1 0.3
2017-Nov-10 08:36N 38°42' W 009°11'0 0.0
2017-Nov-10 06:26N 38°42' W 009°11'0 0.0
2017-Nov-10 05:24N 38°42' W 009°11'0 0.0
2017-Nov-10 03:49N 38°42' W 009°11'0 0.0
2017-Nov-10 03:19N 38°42' W 009°11'  
Track history (hours):
 
Tides and Currents Weather Stations Pressure Air Temp Water Temp Dewpoint Dewpoint Depression Visibility Wind Speed Wind Dir Waves Ship Positions

Mh2 Luar

Last reported at 2017-Nov-19 22:04 UTC. Time now 2017-Nov-23 11:03 UTC.
Position N 38°42' W 009°11'.

Type: Passenger vessel. MMSI: 263753590.

Date/timePositionNaut miles runAvg speedWind from/ knotsBaromVisibWave heightAir tempDewpointWater temp
2017-Nov-19 22:04N 38°42' W 009°11'2 0.2
2017-Nov-19 14:33N 38°41' W 009°13'3 3.0
2017-Nov-19 13:30N 38°42' W 009°09'3 1.1
2017-Nov-19 10:43N 38°42' W 009°13'2 0.6
2017-Nov-19 07:50N 38°42' W 009°11'0 0.0
2017-Nov-19 05:39N 38°42' W 009°11'0 0.0
2017-Nov-19 05:11N 38°42' W 009°11'0 0.0
2017-Nov-19 04:50N 38°42' W 009°11'0 0.0
2017-Nov-19 02:52N 38°42' W 009°11'0 0.0
2017-Nov-19 02:25N 38°42' W 009°11'0 0.0
2017-Nov-19 01:55N 38°42' W 009°11'2 0.2
2017-Nov-18 17:57N 38°42' W 009°09'2 0.3
2017-Nov-18 11:18N 38°42' W 009°11'0 0.1
2017-Nov-18 09:02N 38°42' W 009°11'0 0.0
2017-Nov-18 08:44N 38°42' W 009°11'0 0.0
2017-Nov-18 08:26N 38°42' W 009°11'0 0.0
2017-Nov-18 06:02N 38°42' W 009°11'0 0.0
2017-Nov-18 05:56N 38°42' W 009°11'0 0.0
2017-Nov-18 05:26N 38°42' W 009°11'0 0.0
2017-Nov-18 04:38N 38°42' W 009°11'0 0.0
2017-Nov-18 04:20N 38°42' W 009°11'0 0.0
2017-Nov-18 03:47N 38°42' W 009°11'0 0.0
2017-Nov-17 08:54N 38°42' W 009°11'0 0.0
2017-Nov-17 06:49N 38°42' W 009°11'0 0.0
2017-Nov-17 06:19N 38°42' W 009°11'0 0.0
2017-Nov-17 05:48N 38°42' W 009°11'0 0.0
2017-Nov-17 05:25N 38°42' W 009°11'0 0.0
2017-Nov-17 04:38N 38°42' W 009°11'0 0.0
2017-Nov-17 04:02N 38°42' W 009°11'0 0.0
2017-Nov-17 03:38N 38°42' W 009°11'0 0.0
2017-Nov-17 03:17N 38°42' W 009°11'0 0.0
2017-Nov-17 02:56N 38°42' W 009°11'0 0.0
2017-Nov-17 02:28N 38°42' W 009°11'0 0.0
2017-Nov-17 01:55N 38°42' W 009°11'0 0.0
2017-Nov-17 00:11N 38°42' W 009°11'0 0.0
2017-Nov-16 23:56N 38°42' W 009°11'0 0.0
2017-Nov-16 20:49N 38°42' W 009°11'0 0.0
2017-Nov-16 06:42N 38°42' W 009°11'0 0.0
2017-Nov-16 05:18N 38°42' W 009°11'0 0.0
2017-Nov-16 05:00N 38°42' W 009°11'0 0.0
2017-Nov-16 03:41N 38°42' W 009°11'0 0.0
2017-Nov-16 03:29N 38°42' W 009°11'0 0.0
2017-Nov-16 02:05N 38°42' W 009°11'0 0.0
2017-Nov-16 01:46N 38°42' W 009°11'0 0.0
2017-Nov-16 01:20N 38°42' W 009°11'0 0.0
2017-Nov-16 00:59N 38°42' W 009°11'0 0.0
2017-Nov-16 00:05N 38°42' W 009°11'0 0.0
2017-Nov-15 22:35N 38°42' W 009°11'0 0.0
2017-Nov-15 22:08N 38°42' W 009°11'0 0.0
2017-Nov-15 05:58N 38°42' W 009°11'0 0.0
2017-Nov-15 03:31N 38°42' W 009°11'0 0.0
2017-Nov-15 03:13N 38°42' W 009°11'0 0.0
2017-Nov-14 17:12N 38°42' W 009°11'2 0.4
2017-Nov-14 11:42N 38°42' W 009°09'3 3.1
2017-Nov-14 10:36N 38°42' W 009°13'0 2.9
2017-Nov-14 10:29N 38°41' W 009°12'1 0.0
2017-Nov-13 01:59N 38°42' W 009°11'1 0.1
2017-Nov-12 16:06N 38°42' W 009°09'0 1.4
2017-Nov-12 15:48N 38°42' W 009°09'1 3.3
2017-Nov-12 15:26N 38°42' W 009°10'1 1.6
2017-Nov-12 14:31N 38°42' W 009°12'1 6.6
2017-Nov-12 14:26N 38°42' W 009°11'1 1.4
2017-Nov-12 13:33N 38°42' W 009°10'0 5.3
2017-Nov-12 13:29N 38°42' W 009°10'0 0.1
2017-Nov-12 07:30N 38°42' W 009°11'0 0.0
2017-Nov-12 06:02N 38°42' W 009°11'0 0.0
2017-Nov-12 05:41N 38°42' W 009°11'0 0.0
2017-Nov-12 04:49N 38°42' W 009°11'0 0.0
2017-Nov-12 01:44N 38°42' W 009°11'1 0.1
2017-Nov-11 13:42N 38°42' W 009°11'1 0.1
2017-Nov-11 08:24N 38°42' W 009°11'0 0.0
2017-Nov-11 07:57N 38°42' W 009°11'0 0.0
2017-Nov-11 07:27N 38°42' W 009°11'0 0.0
2017-Nov-11 06:57N 38°42' W 009°11'0 0.0
2017-Nov-11 06:24N 38°42' W 009°11'0 0.0
2017-Nov-11 05:48N 38°42' W 009°11'0 0.0
2017-Nov-11 05:25N 38°42' W 009°11'0 0.0
2017-Nov-11 04:56N 38°42' W 009°11'0 0.0
2017-Nov-11 04:14N 38°42' W 009°11'0 0.0
2017-Nov-11 03:47N 38°42' W 009°11'0 0.0
2017-Nov-11 01:52N 38°42' W 009°11'0 0.0
2017-Nov-11 01:28N 38°42' W 009°11'0 0.0
2017-Nov-11 01:00N 38°42' W 009°11'0 0.0
2017-Nov-11 00:20N 38°42' W 009°11'0 0.0
2017-Nov-10 23:59N 38°42' W 009°11'0 0.0
2017-Nov-10 22:35N 38°42' W 009°11'0 0.0
2017-Nov-10 21:14N 38°42' W 009°11'2 0.2
2017-Nov-10 12:32N 38°41' W 009°13'1 7.5
2017-Nov-10 12:26N 38°42' W 009°12'1 0.3
2017-Nov-10 08:36N 38°42' W 009°11'0 0.0
2017-Nov-10 06:26N 38°42' W 009°11'0 0.0
2017-Nov-10 05:24N 38°42' W 009°11'0 0.0
2017-Nov-10 03:49N 38°42' W 009°11'0 0.0
2017-Nov-10 03:19N 38°42' W 009°11'  

Dump ship's entire track history